Terminal Aerodrome Forecast
Issued by NWS

Home | Current Version | Previous Version | Text Only | Print | Product List | Glossary On
Versions: 1 2 3 4 5 6 7 8 9 10 11 12 13 14 15 16 17 18 19 20 21 22 23 24
000
FTUS42 KTBW 031139
TAFPIE
TAF
KPIE 031139Z 0312/0412 11008KT P6SM SCT015 BKN080 OVC250
     FM031500 11008KT P6SM VCSH SCT020 OVC060
     FM031800 06007KT P6SM VCTS BKN030CB OVC060
     FM032100 35006KT 6SM SHRA VCTS BKN030CB OVC050
     FM040000 11005KT 6SM SHRA VCTS BKN025CB OVC040
     FM040900 15006KT 5SM SHRA VCTS BKN020CB OVC040=

USA.gov is the U.S. government's official web portal to all federal, state and local government web resources and services.